Time;durP1;ratioP1;P1;durP2;ratioP2;P2;SDS_P1;SDS_P2;PMS_P1;PMS_P2;Temp;Humidity;BMP_temperature;BMP_pressure;BME280_temperature;BME280_humidity;BME280_pressure;Samples;Min_cycle;Max_cycle;Signal;HPM_P1;HPM_P2
2023/08/27 00:00:22;;;;;;;6.15;2.75;;;;;;;17.79;70.29;98359.06;4975376;28;20477;-85
2023/08/27 00:02:47;;;;;;;4.07;2.60;;;;;;;17.72;70.53;98347.91;5008989;28;20394;-85
2023/08/27 00:05:13;;;;;;;9.98;2.67;;;;;;;17.83;70.45;98350.06;4999184;28;20109;-85
2023/08/27 00:07:39;;;;;;;5.55;2.35;;;;;;;17.84;70.04;98343.53;4976046;28;20084;-85
2023/08/27 00:10:04;;;;;;;6.90;2.67;;;;;;;17.65;70.43;98324.03;4996180;28;20121;-85
2023/08/27 00:12:31;;;;;;;4.43;2.60;;;;;;;17.74;70.92;98316.78;4974406;28;20029;-85
2023/08/27 00:14:56;;;;;;;6.32;2.90;;;;;;;17.77;71.13;98315.38;4959819;28;20033;-85
2023/08/27 00:17:22;;;;;;;5.88;2.53;;;;;;;17.89;70.32;98297.50;4991922;28;20087;-85
2023/08/27 00:19:48;;;;;;;6.18;3.03;;;;;;;18.01;71.00;98317.75;4970198;28;20030;-86
2023/08/27 00:22:13;;;;;;;3.97;2.60;;;;;;;17.95;70.54;98312.47;4976223;28;20038;-85
2023/08/27 00:24:39;;;;;;;3.35;2.97;;;;;;;17.85;70.73;98328.94;4960937;28;20030;-85
2023/08/27 00:27:05;;;;;;;2.80;2.08;;;;;;;17.27;74.90;98311.16;4976808;28;20042;-85
2023/08/27 00:29:31;;;;;;;3.72;2.38;;;;;;;17.63;72.17;98307.34;5009434;28;20033;-84
2023/08/27 00:31:56;;;;;;;5.82;2.60;;;;;;;17.62;72.13;98310.38;4993400;28;20124;-84
2023/08/27 00:34:31;;;;;;;4.85;2.42;;;;;;;17.61;72.68;98297.97;5007712;28;20393;-84
2023/08/27 00:36:56;;;;;;;4.13;2.75;;;;;;;17.54;72.85;98305.72;4998466;28;20029;-85
2023/08/27 00:39:21;;;;;;;2.80;2.42;;;;;;;17.34;73.59;98312.34;5000080;28;20053;-85
2023/08/27 00:41:47;;;;;;;4.68;2.85;;;;;;;17.19;74.75;98305.38;5011534;28;20559;-84
2023/08/27 00:44:12;;;;;;;4.28;2.88;;;;;;;17.30;73.25;98283.59;4979430;28;20061;-85
2023/08/27 00:46:38;;;;;;;6.18;2.90;;;;;;;17.65;72.78;98296.25;4970964;28;20044;-84
2023/08/27 00:49:04;;;;;;;4.30;2.72;;;;;;;17.71;72.13;98282.31;5007583;28;20034;-84
2023/08/27 00:51:32;;;;;;;2.50;2.22;;;;;;;17.62;72.49;98278.78;4975901;28;20026;-85
2023/08/27 00:53:58;;;;;;;3.08;2.28;;;;;;;17.28;75.18;98300.06;4995436;28;20052;-84
2023/08/27 00:56:24;;;;;;;5.07;2.53;;;;;;;17.61;73.09;98293.38;5006747;28;20037;-85
2023/08/27 00:58:50;;;;;;;3.25;2.35;;;;;;;17.67;72.26;98250.88;4993732;28;20120;-85
2023/08/27 01:01:17;;;;;;;2.58;1.98;;;;;;;17.57;72.73;98240.31;5008471;28;20116;-84
2023/08/27 01:03:43;;;;;;;5.03;2.38;;;;;;;17.55;72.66;98259.53;4998093;28;20482;-85
2023/08/27 01:06:08;;;;;;;3.15;2.67;;;;;;;17.28;73.88;98229.94;4993595;28;20164;-85
2023/08/27 01:08:40;;;;;;;7.18;3.47;;;;;;;16.88;76.52;98245.19;4997943;28;20026;-85
2023/08/27 01:11:36;;;;;;;5.20;3.72;;;;;;;16.46;78.67;98259.78;5013678;28;20434;-85
2023/08/27 01:14:10;;;;;;;4.90;2.47;;;;;;;17.23;74.57;98265.13;5012509;28;20037;-86
2023/08/27 01:16:38;;;;;;;3.85;3.13;;;;;;;16.51;78.29;98264.31;5013807;28;20025;-85
2023/08/27 01:19:14;;;;;;;3.88;2.80;;;;;;;16.21;81.47;98272.94;4977472;28;20030;-85
2023/08/27 01:21:43;;;;;;;6.78;3.63;;;;;;;15.96;84.41;98260.75;4996629;28;20422;-85
2023/08/27 01:24:10;;;;;;;4.38;3.33;;;;;;;15.80;82.04;98250.56;4989365;28;20018;-84
2023/08/27 01:26:48;;;;;;;2.88;2.67;;;;;;;16.13;81.03;98249.41;5009053;28;20113;-85
2023/08/27 01:29:25;;;;;;;2.60;2.40;;;;;;;16.89;77.57;98238.66;4980923;28;20026;-85
2023/08/27 01:32:04;;;;;;;5.28;2.47;;;;;;;17.33;75.18;98248.69;4993732;28;20037;-85
2023/08/27 01:34:30;;;;;;;2.58;2.30;;;;;;;17.50;74.28;98242.63;4993226;28;20037;-85
2023/08/27 01:36:57;;;;;;;2.35;2.15;;;;;;;17.63;73.90;98257.97;5002025;28;20073;-85
2023/08/27 01:39:22;;;;;;;2.53;2.33;;;;;;;17.67;73.59;98248.94;4975583;28;20029;-85
2023/08/27 01:41:47;;;;;;;3.85;2.20;;;;;;;17.78;73.50;98262.97;5002652;28;20433;-85
2023/08/27 01:44:13;;;;;;;11.30;3.17;;;;;;;17.21;75.48;98261.94;5001931;28;20454;-85
2023/08/27 01:46:38;;;;;;;4.90;2.75;;;;;;;16.89;76.26;98256.72;4994942;28;20112;-85
2023/08/27 01:49:04;;;;;;;5.13;2.80;;;;;;;16.18;81.53;98263.59;4986735;28;20124;-84
2023/08/27 01:51:29;;;;;;;7.63;3.30;;;;;;;15.90;82.95;98255.78;4984736;28;20026;-85
2023/08/27 01:53:54;;;;;;;4.97;2.75;;;;;;;15.90;80.83;98261.16;4994225;28;20040;-85
2023/08/27 01:56:19;;;;;;;2.97;2.60;;;;;;;16.56;78.32;98263.38;4979102;28;20034;-85
2023/08/27 01:58:45;;;;;;;2.58;2.33;;;;;;;16.76;77.24;98281.81;4960202;28;20030;-85
2023/08/27 02:01:10;;;;;;;3.03;2.50;;;;;;;17.31;75.51;98267.09;5013898;28;20034;-85
2023/08/27 02:03:36;;;;;;;4.18;2.53;;;;;;;17.56;74.63;98276.53;4995917;28;20030;-85
2023/08/27 02:06:03;;;;;;;4.72;2.92;;;;;;;17.20;74.94;98273.81;4979095;28;20555;-85
2023/08/27 02:08:29;;;;;;;4.38;2.80;;;;;;;16.80;77.11;98255.84;5012462;28;20048;-85
2023/08/27 02:10:54;;;;;;;4.38;2.85;;;;;;;17.13;75.33;98266.16;4978437;28;20030;-85
2023/08/27 02:13:19;;;;;;;7.22;2.40;;;;;;;16.98;76.41;98284.56;4999797;28;20025;-85
2023/08/27 02:15:45;;;;;;;3.65;3.00;;;;;;;17.01;75.67;98281.28;5011541;28;20118;-84
2023/08/27 02:18:10;;;;;;;4.55;2.58;;;;;;;17.11;75.02;98240.59;4994613;28;20030;-85
2023/08/27 02:20:36;;;;;;;4.28;2.40;;;;;;;17.28;75.66;98267.69;4979469;28;20034;-85
2023/08/27 02:23:01;;;;;;;4.25;3.10;;;;;;;16.74;76.26;98254.38;4994747;28;20022;-85
2023/08/27 02:25:26;;;;;;;4.85;2.85;;;;;;;16.89;76.57;98249.44;4988242;28;20025;-85
2023/08/27 02:27:52;;;;;;;3.15;2.70;;;;;;;16.80;76.88;98251.25;4976628;28;20429;-84
2023/08/27 02:30:17;;;;;;;4.57;3.65;;;;;;;15.72;81.26;98228.63;5007894;28;20042;-84
2023/08/27 02:32:42;;;;;;;6.22;3.20;;;;;;;15.57;82.72;98244.25;4975220;28;20030;-85
2023/08/27 02:35:08;;;;;;;4.25;2.28;;;;;;;15.84;80.09;98236.22;4995171;28;20033;-85
2023/08/27 02:37:33;;;;;;;3.33;2.40;;;;;;;16.71;77.44;98225.34;4963224;28;20033;-85
2023/08/27 02:39:59;;;;;;;5.30;2.75;;;;;;;17.21;75.66;98257.31;4993079;28;20053;-85
2023/08/27 02:42:24;;;;;;;2.67;2.30;;;;;;;17.31;75.29;98244.72;4990525;28;20422;-85
2023/08/27 02:44:49;;;;;;;2.65;2.45;;;;;;;17.38;74.93;98229.69;4989004;28;20030;-85
2023/08/27 02:47:15;;;;;;;2.88;2.22;;;;;;;17.17;75.22;98215.91;4995777;28;20113;-85
2023/08/27 02:49:41;;;;;;;4.43;2.33;;;;;;;17.12;75.59;98231.41;4996368;28;20502;-84
2023/08/27 02:52:06;;;;;;;3.92;2.30;;;;;;;17.38;75.02;98226.19;5010671;28;20034;-84
2023/08/27 02:54:31;;;;;;;4.72;2.60;;;;;;;17.28;74.73;98213.75;4976248;28;20053;-85
2023/08/27 02:56:57;;;;;;;2.95;2.55;;;;;;;17.39;74.62;98219.69;4986036;28;20044;-85
2023/08/27 02:59:22;;;;;;;5.45;2.70;;;;;;;17.60;74.45;98227.03;5005806;28;20032;-85
2023/08/27 03:01:47;;;;;;;2.40;2.00;;;;;;;17.57;74.65;98219.53;4996153;28;20116;-86
2023/08/27 03:04:13;;;;;;;3.78;2.45;;;;;;;17.43;74.40;98197.19;4989398;28;20056;-85
2023/08/27 03:06:38;;;;;;;3.13;2.47;;;;;;;17.32;74.73;98208.56;4994500;28;20415;-85
2023/08/27 03:09:03;;;;;;;2.78;2.50;;;;;;;17.03;75.69;98212.47;4977555;28;20491;-84
2023/08/27 03:11:29;;;;;;;4.63;2.17;;;;;;;17.21;75.39;98199.91;4984320;28;20383;-85
2023/08/27 03:13:54;;;;;;;4.07;3.03;;;;;;;16.13;81.09;98201.75;4973858;28;20044;-84
2023/08/27 03:16:19;;;;;;;2.65;2.08;;;;;;;16.39;78.78;98180.47;4979441;28;20040;-85
2023/08/27 03:18:46;;;;;;;2.70;2.28;;;;;;;17.08;76.85;98214.25;5001840;28;20022;-85
2023/08/27 03:21:11;;;;;;;3.33;3.03;;;;;;;16.98;76.13;98192.91;5009453;28;20029;-84
2023/08/27 03:23:37;;;;;;;3.17;2.88;;;;;;;17.14;75.68;98197.66;4999757;28;20478;-86
2023/08/27 03:26:03;;;;;;;3.33;2.70;;;;;;;17.19;75.49;98183.22;4989797;28;20030;-85
2023/08/27 03:28:29;;;;;;;4.28;3.05;;;;;;;16.34;78.74;98177.88;4988017;28;20121;-85
2023/08/27 03:30:54;;;;;;;4.00;2.50;;;;;;;16.99;76.24;98203.38;4975765;28;20121;-84
2023/08/27 03:33:19;;;;;;;4.75;2.60;;;;;;;16.24;78.32;98176.19;5002063;28;20498;-85
2023/08/27 03:35:54;;;;;;;4.80;2.83;;;;;;;16.04;80.70;98200.03;4995262;28;20100;-85
2023/08/27 03:38:19;;;;;;;3.70;3.15;;;;;;;15.87;82.21;98205.22;5005607;28;20108;-85
2023/08/27 03:40:52;;;;;;;5.93;3.08;;;;;;;16.02;81.00;98197.66;4991744;28;20489;-85
2023/08/27 03:43:17;;;;;;;4.43;3.90;;;;;;;15.50;83.95;98200.78;5008918;28;20112;-84
2023/08/27 03:45:43;;;;;;;5.63;3.60;;;;;;;15.59;83.73;98213.28;5004089;28;20097;-85
2023/08/27 03:48:09;;;;;;;5.20;3.58;;;;;;;15.49;83.83;98209.94;5011054;28;20188;-85
2023/08/27 03:50:36;;;;;;;5.80;3.17;;;;;;;15.72;82.54;98217.88;5000259;28;20038;-85
2023/08/27 03:53:02;;;;;;;4.35;3.53;;;;;;;15.52;83.11;98201.28;4993053;28;20057;-84
2023/08/27 03:55:27;;;;;;;5.45;2.97;;;;;;;15.72;82.18;98219.75;4992135;28;20026;-85
2023/08/27 03:57:53;;;;;;;5.00;2.97;;;;;;;16.14;79.70;98195.25;4971675;28;20046;-85
2023/08/27 04:00:18;;;;;;;2.53;2.17;;;;;;;16.58;77.43;98188.47;4980901;28;20116;-85
2023/08/27 04:02:44;;;;;;;4.32;2.75;;;;;;;16.64;77.48;98204.22;4989232;28;20120;-86
2023/08/27 04:05:10;;;;;;;4.72;2.80;;;;;;;16.72;77.07;98219.66;4993208;28;20022;-85
2023/08/27 04:07:37;;;;;;;4.90;3.17;;;;;;;17.12;76.37;98242.19;4960749;28;20056;-86
2023/08/27 04:10:04;;;;;;;7.68;3.25;;;;;;;17.06;75.80;98221.81;4992202;28;20052;-85
2023/08/27 04:12:31;;;;;;;4.63;2.92;;;;;;;16.87;76.51;98229.28;4973869;28;20030;-85
2023/08/27 04:14:57;;;;;;;4.47;2.60;;;;;;;17.10;75.86;98255.19;4973919;28;20080;-85
2023/08/27 04:17:22;;;;;;;5.53;2.95;;;;;;;16.74;76.95;98257.88;4981609;28;20460;-85
2023/08/27 04:19:48;;;;;;;3.80;2.60;;;;;;;16.95;76.26;98247.47;4983579;28;20034;-85
2023/08/27 04:22:13;;;;;;;3.10;2.67;;;;;;;16.99;76.17;98246.50;5004935;28;20054;-85
2023/08/27 04:24:39;;;;;;;6.35;2.40;;;;;;;17.04;75.83;98259.88;4968505;28;20026;-85
2023/08/27 04:27:04;;;;;;;3.35;2.97;;;;;;;16.93;76.37;98255.81;4996827;28;20377;-85
2023/08/27 04:29:29;;;;;;;3.22;2.67;;;;;;;17.03;75.56;98246.72;4969778;28;20046;-85
2023/08/27 04:31:55;;;;;;;3.15;2.85;;;;;;;16.67;76.58;98249.41;4966755;28;20026;-85
2023/08/27 04:34:20;;;;;;;6.97;2.65;;;;;;;16.91;76.08;98255.34;4974328;28;20105;-86
2023/08/27 04:36:46;;;;;;;3.35;2.63;;;;;;;17.09;75.61;98254.38;5008353;28;20049;-86
2023/08/27 04:39:13;;;;;;;3.65;2.72;;;;;;;17.10;75.31;98255.19;4990310;28;20030;-85
2023/08/27 04:41:39;;;;;;;4.00;3.13;;;;;;;16.17;78.36;98226.16;5006872;28;20478;-85
2023/08/27 04:44:05;;;;;;;3.30;3.00;;;;;;;16.56;77.89;98239.13;4977512;28;20037;-85
2023/08/27 04:46:31;;;;;;;2.80;2.50;;;;;;;16.86;76.69;98227.72;4970817;28;20030;-84
2023/08/27 04:48:56;;;;;;;4.40;3.15;;;;;;;16.95;75.89;98237.44;5007806;28;20030;-85
2023/08/27 04:51:22;;;;;;;4.93;2.80;;;;;;;16.76;76.13;98212.53;4976376;28;20028;-85
2023/08/27 04:53:47;;;;;;;4.32;2.80;;;;;;;16.60;76.60;98191.63;4987681;28;20030;-84
2023/08/27 04:56:12;;;;;;;3.00;2.78;;;;;;;16.83;76.00;98201.34;5007531;28;20045;-85
2023/08/27 04:58:38;;;;;;;3.38;3.08;;;;;;;16.49;77.27;98207.97;5009941;28;20037;-85
2023/08/27 05:01:03;;;;;;;3.63;3.05;;;;;;;16.68;76.16;98199.81;4962251;28;20569;-85
2023/08/27 05:03:28;;;;;;;3.92;3.00;;;;;;;16.97;76.18;98218.28;5006525;28;20034;-85
2023/08/27 05:05:54;;;;;;;3.33;3.03;;;;;;;16.80;76.21;98196.56;4992912;28;20030;-85
2023/08/27 05:08:20;;;;;;;4.80;2.90;;;;;;;16.96;75.82;98212.09;4986686;28;20062;-86
2023/08/27 05:10:45;;;;;;;3.65;2.80;;;;;;;16.70;76.38;98200.28;4997572;28;20022;-84
2023/08/27 05:13:10;;;;;;;3.88;3.15;;;;;;;16.78;76.23;98214.94;4980543;28;20534;-85
2023/08/27 05:15:36;;;;;;;3.42;3.13;;;;;;;16.16;80.44;98214.59;4992720;28;20052;-84
2023/08/27 05:18:02;;;;;;;6.22;3.53;;;;;;;16.06;79.80;98193.25;4982280;28;20042;-85
2023/08/27 05:20:28;;;;;;;3.97;2.92;;;;;;;16.44;78.14;98189.25;4997297;28;20117;-85
2023/08/27 05:22:53;;;;;;;3.08;2.72;;;;;;;16.74;77.14;98209.34;4998876;28;20609;-85
2023/08/27 05:25:19;;;;;;;2.92;2.60;;;;;;;16.73;77.34;98199.66;4976315;28;20022;-86
2023/08/27 05:27:44;;;;;;;3.42;3.00;;;;;;;16.80;76.70;98199.25;4975126;28;20168;-85
2023/08/27 05:30:16;;;;;;;4.60;3.50;;;;;;;16.03;80.57;98187.69;4994983;28;20030;-85
2023/08/27 05:32:43;;;;;;;4.25;2.97;;;;;;;16.45;78.63;98185.44;4983588;28;20037;-85
2023/08/27 05:35:08;;;;;;;3.95;3.30;;;;;;;16.32;79.39;98177.38;4997837;28;20516;-85
2023/08/27 05:37:34;;;;;;;4.05;3.00;;;;;;;16.60;77.65;98183.56;4977044;28;20034;-86
2023/08/27 05:39:59;;;;;;;2.85;2.40;;;;;;;16.64;77.62;98187.22;4995448;28;20041;-85
2023/08/27 05:42:25;;;;;;;4.25;3.30;;;;;;;16.03;81.32;98182.31;4984746;28;20052;-85
2023/08/27 05:44:50;;;;;;;5.05;3.28;;;;;;;16.13;80.70;98177.50;4979530;28;20034;-86
2023/08/27 05:47:17;;;;;;;6.45;3.15;;;;;;;15.93;84.46;98204.03;4973225;28;20026;-85
2023/08/27 05:49:43;;;;;;;4.55;3.40;;;;;;;15.84;84.55;98206.59;4973057;28;20031;-85
2023/08/27 05:52:08;;;;;;;5.85;3.78;;;;;;;15.74;84.94;98191.47;5007825;28;20437;-86
2023/08/27 05:54:34;;;;;;;4.75;2.90;;;;;;;16.43;80.02;98217.28;4995536;28;20029;-84
2023/08/27 05:57:00;;;;;;;3.50;3.10;;;;;;;16.80;78.31;98223.50;5009826;28;20052;-85
2023/08/27 05:59:25;;;;;;;3.45;2.85;;;;;;;16.64;79.30;98208.78;5013006;28;20622;-85
2023/08/27 06:01:51;;;;;;;4.22;3.05;;;;;;;16.63;79.27;98213.38;4980157;28;20045;-85
2023/08/27 06:04:16;;;;;;;4.40;3.05;;;;;;;16.66;78.43;98206.59;4999715;28;20117;-85
2023/08/27 06:06:42;;;;;;;6.45;3.53;;;;;;;16.28;80.84;98190.66;4976647;28;20034;-84
2023/08/27 06:09:09;;;;;;;3.85;3.42;;;;;;;16.19;81.79;98192.47;4981681;28;20096;-85
2023/08/27 06:11:34;;;;;;;4.88;2.60;;;;;;;16.36;80.24;98181.84;4994865;28;20121;-85
2023/08/27 06:14:00;;;;;;;3.30;2.65;;;;;;;16.94;77.27;98200.81;4995724;28;20109;-85
2023/08/27 06:16:25;;;;;;;2.70;2.50;;;;;;;17.13;76.54;98209.53;4975345;28;20030;-85
2023/08/27 06:18:50;;;;;;;3.75;2.80;;;;;;;17.09;76.56;98192.38;4978505;28;20030;-86
2023/08/27 06:21:17;;;;;;;5.85;3.00;;;;;;;16.81;77.46;98182.00;4975586;28;20092;-86
2023/08/27 06:23:43;;;;;;;3.78;3.15;;;;;;;16.58;79.60;98196.53;4986501;28;20049;-85
2023/08/27 06:26:08;;;;;;;2.95;2.75;;;;;;;16.56;78.90;98183.34;5009229;28;20112;-85
2023/08/27 06:28:34;;;;;;;5.63;3.35;;;;;;;16.85;77.42;98182.97;4979806;28;20026;-85
2023/08/27 06:31:00;;;;;;;3.85;2.47;;;;;;;17.21;76.59;98202.63;4959932;28;20037;-85
2023/08/27 06:33:26;;;;;;;20.40;3.78;;;;;;;16.95;77.07;98180.81;4992863;28;20037;-85
2023/08/27 06:35:51;;;;;;;3.22;2.90;;;;;;;17.16;76.95;98200.03;4976287;28;20034;-84
2023/08/27 06:38:17;;;;;;;4.25;3.03;;;;;;;17.02;77.27;98204.66;4991543;28;20245;-84
2023/08/27 06:40:42;;;;;;;4.03;3.13;;;;;;;16.91;78.38;98203.31;5005468;28;20029;-85
2023/08/27 06:43:08;;;;;;;3.22;2.90;;;;;;;17.06;77.92;98202.94;5010067;28;20704;-85
2023/08/27 06:45:34;;;;;;;2.88;2.53;;;;;;;17.07;77.61;98193.78;5003948;28;20026;-84
2023/08/27 06:47:59;;;;;;;3.47;2.45;;;;;;;17.10;77.14;98199.34;4987806;28;20040;-85
2023/08/27 06:50:25;;;;;;;5.25;2.85;;;;;;;16.86;79.37;98182.66;4991843;28;20685;-84
2023/08/27 06:52:50;;;;;;;3.85;2.92;;;;;;;17.22;77.17;98179.91;4999634;28;20034;-84
2023/08/27 06:55:15;;;;;;;3.55;2.58;;;;;;;17.05;77.29;98169.00;4992522;28;20025;-85
2023/08/27 06:57:41;;;;;;;3.88;3.13;;;;;;;16.87;82.28;98186.16;5005611;28;20074;-85
2023/08/27 07:00:10;;;;;;;5.85;3.10;;;;;;;16.80;82.70;98175.00;4977809;28;20022;-85
2023/08/27 07:02:35;;;;;;;6.43;3.78;;;;;;;16.75;81.81;98146.28;4992303;28;20480;-85
2023/08/27 07:05:01;;;;;;;7.13;3.75;;;;;;;16.68;83.43;98164.78;4986126;28;20057;-85
2023/08/27 07:07:26;;;;;;;9.77;3.78;;;;;;;16.53;84.45;98162.41;5005187;28;20124;-85
2023/08/27 07:09:52;;;;;;;7.90;4.38;;;;;;;16.68;83.21;98158.56;5009671;28;20034;-85
2023/08/27 07:12:18;;;;;;;12.40;3.67;;;;;;;16.55;83.11;98167.50;4993211;28;20022;-85
2023/08/27 07:14:45;;;;;;;3.78;3.00;;;;;;;16.45;82.87;98144.22;4990180;28;20565;-85
2023/08/27 07:17:10;;;;;;;7.13;3.90;;;;;;;16.59;83.66;98160.41;4987854;28;20510;-84
2023/08/27 07:19:35;;;;;;;6.85;3.22;;;;;;;16.93;79.39;98152.56;4972614;28;20030;-85
2023/08/27 07:22:01;;;;;;;2.90;2.58;;;;;;;17.27;77.87;98162.81;4979631;28;20042;-84
2023/08/27 07:24:26;;;;;;;3.30;2.95;;;;;;;17.48;77.57;98180.88;4973257;28;20100;-85
2023/08/27 07:26:52;;;;;;;4.38;3.30;;;;;;;17.13;79.32;98162.88;4992823;28;20029;-85
2023/08/27 07:29:17;;;;;;;6.75;3.45;;;;;;;17.37;78.96;98194.91;5008042;28;20034;-85
2023/08/27 07:31:43;;;;;;;3.58;2.88;;;;;;;17.49;77.16;98182.47;4992025;28;20091;-84
2023/08/27 07:34:08;;;;;;;10.10;3.95;;;;;;;17.20;80.47;98187.53;4982815;28;20583;-85
2023/08/27 07:36:34;;;;;;;5.63;3.78;;;;;;;17.25;80.17;98200.88;4992026;28;20026;-85
2023/08/27 07:38:59;;;;;;;4.18;3.33;;;;;;;16.77;82.20;98202.56;4995809;28;20025;-84
2023/08/27 07:41:24;;;;;;;5.32;3.55;;;;;;;16.73;84.27;98199.66;4990021;28;20044;-84
2023/08/27 07:43:50;;;;;;;5.25;4.45;;;;;;;16.45;84.40;98193.53;4985818;28;20417;-84
2023/08/27 07:46:15;;;;;;;3.47;3.00;;;;;;;17.07;80.67;98185.69;4992126;28;20025;-84
2023/08/27 07:48:41;;;;;;;7.00;4.78;;;;;;;17.52;80.99;98208.06;4973076;28;20057;-84
2023/08/27 07:51:06;;;;;;;4.65;3.72;;;;;;;16.79;83.56;98194.97;4992561;28;20512;-85
2023/08/27 07:53:32;;;;;;;4.22;3.42;;;;;;;17.49;80.21;98195.16;4965856;28;20030;-84
2023/08/27 07:55:57;;;;;;;3.65;2.90;;;;;;;17.51;79.60;98192.97;4978546;28;20054;-85
2023/08/27 07:58:23;;;;;;;3.15;2.78;;;;;;;17.49;80.27;98204.06;4994058;28;20026;-84
2023/08/27 08:00:55;;;;;;;3.85;3.00;;;;;;;17.62;78.65;98178.13;4976669;28;20034;-85
2023/08/27 08:03:21;;;;;;;7.22;3.90;;;;;;;17.58;81.59;98183.31;4992249;28;20018;-85
2023/08/27 08:05:48;;;;;;;4.18;3.78;;;;;;;17.22;83.45;98198.78;4969146;28;20064;-85
2023/08/27 08:08:14;;;;;;;5.43;3.20;;;;;;;17.55;79.83;98189.34;4974457;28;20033;-85
2023/08/27 08:10:40;;;;;;;9.30;3.50;;;;;;;17.75;80.03;98207.72;4994399;28;20092;-86
2023/08/27 08:13:05;;;;;;;5.60;3.47;;;;;;;17.47;79.80;98194.69;4977607;28;20050;-85
2023/08/27 08:15:32;;;;;;;3.60;3.30;;;;;;;17.78;79.04;98201.69;4995099;28;20036;-85
2023/08/27 08:17:58;;;;;;;3.95;3.50;;;;;;;17.42;80.40;98201.00;4999053;28;20080;-85
2023/08/27 08:20:23;;;;;;;2.80;2.55;;;;;;;17.91;79.03;98200.78;5023502;28;20033;-85
2023/08/27 08:22:49;;;;;;;7.93;4.15;;;;;;;17.14;79.73;98161.78;5009280;28;20030;-85
2023/08/27 08:25:14;;;;;;;5.93;3.15;;;;;;;17.35;80.67;98180.94;4987233;28;20045;-84
2023/08/27 08:27:40;;;;;;;7.55;4.15;;;;;;;17.17;81.29;98174.63;4978687;28;20034;-85
2023/08/27 08:30:07;;;;;;;5.45;3.55;;;;;;;18.15;78.25;98196.94;4984359;28;20033;-86
2023/08/27 08:32:32;;;;;;;6.22;3.95;;;;;;;17.95;79.65;98187.47;4994519;28;20057;-85
2023/08/27 08:34:58;;;;;;;5.68;3.22;;;;;;;18.48;77.32;98200.84;4991932;28;20738;-85
2023/08/27 08:37:23;;;;;;;3.15;2.85;;;;;;;18.64;75.69;98183.88;4986829;28;20045;-86
2023/08/27 08:39:49;;;;;;;3.20;2.65;;;;;;;18.80;75.87;98205.03;4972850;28;20045;-85
2023/08/27 08:42:25;;;;;;;3.63;2.88;;;;;;;18.92;75.18;98205.97;4990050;28;20029;-85
2023/08/27 08:45:21;;;;;;;7.20;4.68;;;;;;;18.41;78.58;98201.28;4991203;28;20026;-85
2023/08/27 08:47:47;;;;;;;5.57;3.38;;;;;;;18.35;79.09;98188.22;5005268;28;20042;-85
2023/08/27 08:50:18;;;;;;;3.90;3.45;;;;;;;18.59;78.10;98175.91;4990338;28;20528;-85
2023/08/27 08:52:45;;;;;;;6.10;3.08;;;;;;;18.94;76.17;98205.66;5004752;28;20030;-85
2023/08/27 08:55:14;;;;;;;3.33;2.83;;;;;;;18.99;75.83;98164.94;5016094;28;20417;-85
2023/08/27 08:57:51;;;;;;;7.95;4.03;;;;;;;19.10;76.17;98166.19;4996711;28;20088;-85
2023/08/27 09:00:18;;;;;;;9.27;3.35;;;;;;;19.48;74.69;98171.75;4978815;28;20120;-85
2023/08/27 09:02:47;;;;;;;3.08;2.78;;;;;;;19.50;74.13;98170.31;5008857;28;20048;-84
2023/08/27 09:05:16;;;;;;;6.38;3.55;;;;;;;19.49;74.83;98168.69;5017028;28;20018;-85
2023/08/27 09:07:42;;;;;;;5.20;3.17;;;;;;;19.53;75.34;98152.63;4981634;28;20504;-85
2023/08/27 09:10:13;;;;;;;4.65;3.17;;;;;;;19.63;75.12;98180.16;5011118;28;20109;-85
2023/08/27 09:12:40;;;;;;;4.72;3.28;;;;;;;19.73;73.63;98178.97;5001296;28;20595;-85
2023/08/27 09:15:14;;;;;;;7.68;3.88;;;;;;;19.78;74.61;98184.22;4995643;28;21322;-85
2023/08/27 09:17:40;;;;;;;4.95;3.47;;;;;;;19.30;74.62;98139.28;4999338;28;20041;-84
2023/08/27 09:20:07;;;;;;;5.53;3.28;;;;;;;19.69;72.79;98175.34;4982867;28;20045;-84
2023/08/27 09:22:35;;;;;;;5.50;3.20;;;;;;;19.63;73.00;98154.97;5003947;28;20045;-85
2023/08/27 09:25:02;;;;;;;4.28;3.05;;;;;;;19.94;73.10;98171.75;4981902;28;20494;-85
2023/08/27 09:27:28;;;;;;;3.45;3.08;;;;;;;19.88;72.50;98151.34;5013765;28;20080;-85
2023/08/27 09:29:59;;;;;;;7.20;3.38;;;;;;;19.83;72.57;98173.22;5017771;28;20121;-83
2023/08/27 09:32:24;;;;;;;4.22;2.38;;;;;;;20.04;72.13;98171.38;4982551;28;20030;-85
2023/08/27 09:35:02;;;;;;;4.47;3.17;;;;;;;19.90;72.00;98168.06;5005330;28;21156;-83
2023/08/27 09:37:29;;;;;;;10.82;2.42;;;;;;;19.81;69.95;98157.28;4979653;28;20378;-82
2023/08/27 09:39:55;;;;;;;8.57;2.58;;;;;;;20.00;69.25;98159.59;4994858;28;20030;-83
2023/08/27 09:42:21;;;;;;;6.38;2.60;;;;;;;20.18;71.08;98174.66;4996280;28;20619;-83
2023/08/27 09:44:54;;;;;;;6.30;2.55;;;;;;;20.26;69.76;98164.91;5006263;28;20520;-83
2023/08/27 09:47:34;;;;;;;5.07;2.92;;;;;;;20.35;69.40;98171.88;4992694;28;20026;-83
2023/08/27 09:50:03;;;;;;;2.42;1.95;;;;;;;20.72;68.30;98168.28;4995987;28;20033;-83
2023/08/27 09:52:29;;;;;;;4.70;2.40;;;;;;;20.75;68.21;98169.53;5010842;28;20034;-83
2023/08/27 09:54:55;;;;;;;4.07;2.33;;;;;;;20.78;68.88;98166.16;5011663;28;20033;-82
2023/08/27 09:57:21;;;;;;;2.22;2.03;;;;;;;20.87;67.22;98151.41;5011506;28;20021;-83
2023/08/27 09:59:47;;;;;;;2.92;2.45;;;;;;;20.89;67.39;98148.34;5011471;28;20030;-83
2023/08/27 10:02:14;;;;;;;2.22;1.80;;;;;;;20.93;66.73;98150.06;4997280;28;20120;-83
2023/08/27 10:04:52;;;;;;;2.78;2.15;;;;;;;20.84;67.02;98160.19;4996307;28;20053;-83
2023/08/27 10:07:18;;;;;;;8.95;2.03;;;;;;;20.87;66.22;98145.97;5010436;28;20047;-83
2023/08/27 10:09:51;;;;;;;2.83;1.85;;;;;;;21.00;66.35;98156.88;4999912;28;20138;-83
2023/08/27 10:12:18;;;;;;;2.53;1.88;;;;;;;20.93;65.33;98144.63;4991551;28;20110;-83
2023/08/27 10:14:45;;;;;;;2.80;1.63;;;;;;;21.06;64.76;98161.78;5007850;28;20037;-83
2023/08/27 10:17:11;;;;;;;2.88;2.00;;;;;;;21.10;65.05;98156.50;5013819;28;20034;-82
2023/08/27 10:19:37;;;;;;;3.78;2.03;;;;;;;21.10;65.35;98153.78;4993774;28;20030;-83
2023/08/27 10:22:05;;;;;;;3.42;2.28;;;;;;;21.14;65.21;98131.06;5010214;28;20026;-83
2023/08/27 10:24:32;;;;;;;2.67;1.90;;;;;;;21.01;64.82;98107.72;4994122;28;20430;-82
2023/08/27 10:26:59;;;;;;;3.47;1.70;;;;;;;21.18;64.61;98134.69;5004059;28;20123;-83
2023/08/27 10:29:26;;;;;;;3.63;2.08;;;;;;;21.22;64.66;98118.53;5013569;28;20474;-83
2023/08/27 10:31:52;;;;;;;5.05;1.80;;;;;;;21.24;64.14;98129.84;5009723;28;20026;-83
2023/08/27 10:34:18;;;;;;;2.20;1.67;;;;;;;21.32;62.60;98118.09;4997235;28;20030;-82
2023/08/27 10:36:45;;;;;;;1.73;1.63;;;;;;;21.44;62.74;98104.56;4992669;28;20036;-83
2023/08/27 10:39:13;;;;;;;2.22;1.52;;;;;;;21.67;62.23;98123.94;4989878;28;20064;-83
2023/08/27 10:41:39;;;;;;;2.15;1.50;;;;;;;21.77;62.03;98110.72;4962928;28;20508;-83
2023/08/27 10:44:06;;;;;;;3.40;1.77;;;;;;;22.03;61.00;98121.25;5006571;28;20030;-83
2023/08/27 10:46:32;;;;;;;1.98;1.77;;;;;;;22.22;60.68;98116.84;4980381;28;20026;-83
2023/08/27 10:48:58;;;;;;;5.65;1.77;;;;;;;22.26;60.72;98116.94;4982054;28;20022;-83
2023/08/27 10:51:30;;;;;;;3.75;1.55;;;;;;;22.24;60.55;98081.13;4976327;28;20034;-83
2023/08/27 10:53:57;;;;;;;1.50;1.40;;;;;;;22.27;61.38;98103.00;4976644;28;20410;-83
2023/08/27 10:56:38;;;;;;;3.15;1.58;;;;;;;22.15;61.47;98107.66;4980557;28;20025;-83
2023/08/27 10:59:04;;;;;;;2.80;1.70;;;;;;;21.93;61.55;98113.56;4992935;28;20030;-83
2023/08/27 11:01:36;;;;;;;2.60;1.80;;;;;;;21.86;60.46;98106.00;4999118;28;20352;-83
2023/08/27 11:04:03;;;;;;;3.85;1.90;;;;;;;21.83;61.08;98109.38;5009204;28;20109;-84
2023/08/27 11:06:45;;;;;;;8.75;1.85;;;;;;;21.94;61.60;98099.63;4977896;28;20034;-84
2023/08/27 11:09:11;;;;;;;1.77;1.45;;;;;;;21.91;61.55;98100.31;4988298;28;20497;-84
2023/08/27 11:11:40;;;;;;;3.53;2.63;;;;;;;21.83;61.56;98075.97;4990884;28;20030;-84
2023/08/27 11:14:08;;;;;;;2.63;1.85;;;;;;;22.00;61.48;98097.47;5000568;28;20033;-83
2023/08/27 11:16:43;;;;;;;4.35;1.85;;;;;;;22.02;61.33;98111.50;4993690;28;20026;-83
2023/08/27 11:19:11;;;;;;;3.40;1.88;;;;;;;21.95;61.24;98089.56;4994636;28;20022;-82
2023/08/27 11:21:46;;;;;;;2.72;1.60;;;;;;;22.05;61.04;98076.31;5002020;28;20572;-82
2023/08/27 11:24:12;;;;;;;1.85;1.75;;;;;;;22.22;61.20;98092.34;4993558;28;20030;-83
2023/08/27 11:26:39;;;;;;;2.50;1.83;;;;;;;22.39;60.13;98083.94;5002155;28;20513;-83
2023/08/27 11:29:07;;;;;;;2.65;1.92;;;;;;;22.46;60.29;98079.84;4976006;28;20044;-83
2023/08/27 11:31:33;;;;;;;2.05;1.80;;;;;;;22.51;60.33;98079.59;4994631;28;20033;-83